createdAt,value
2023-02-03T00:00:09.201Z,8.53
2023-02-03T00:02:59.633Z,8.52
2023-02-03T00:05:28.404Z,8.55
2023-02-03T00:07:56.565Z,8.56
2023-02-03T00:10:24.763Z,8.64
2023-02-03T00:12:52.900Z,8.69
2023-02-03T00:15:23.167Z,8.74
2023-02-03T00:17:51.083Z,8.80
2023-02-03T00:20:19.444Z,8.83
2023-02-03T00:22:47.264Z,8.91
2023-02-03T00:25:15.200Z,8.99
2023-02-03T00:27:42.986Z,9.05
2023-02-03T00:30:12.425Z,9.08
2023-02-03T00:32:40.296Z,9.13
2023-02-03T00:35:08.610Z,9.17
2023-02-03T00:37:37.734Z,9.20
2023-02-03T00:40:06.308Z,9.24
2023-02-03T00:42:37.284Z,9.24
2023-02-03T00:45:06.587Z,9.26
2023-02-03T00:47:34.445Z,9.30
2023-02-03T00:50:02.577Z,9.31
2023-02-03T00:52:30.734Z,9.35
2023-02-03T00:54:58.619Z,9.38
2023-02-03T00:57:26.500Z,9.40
2023-02-03T00:59:55.958Z,9.44
2023-02-03T01:02:24.525Z,9.46
2023-02-03T01:04:53.565Z,9.48
2023-02-03T01:07:22.034Z,9.50
2023-02-03T01:09:50.470Z,9.52
2023-02-03T01:12:18.342Z,9.54
2023-02-03T01:14:46.193Z,9.58
2023-02-03T01:17:14.016Z,9.62
2023-02-03T01:19:41.787Z,9.65
2023-02-03T01:22:09.637Z,9.69
2023-02-03T01:24:37.521Z,9.70
2023-02-03T01:27:06.328Z,9.71
2023-02-03T01:29:35.457Z,9.73
2023-02-03T01:32:03.881Z,9.74
2023-02-03T01:34:31.834Z,9.75
2023-02-03T01:37:00.199Z,9.76
2023-02-03T01:39:29.605Z,9.78
2023-02-03T01:41:57.884Z,9.79
2023-02-03T01:44:52.313Z,9.81
2023-02-03T01:47:38.735Z,9.83
2023-02-03T01:50:18.669Z,9.83
2023-02-03T01:52:57.827Z,9.86
2023-02-03T01:55:35.006Z,9.87
2023-02-03T01:58:11.442Z,9.90
2023-02-03T02:00:40.103Z,9.90
2023-02-03T02:03:09.956Z,9.90
2023-02-03T02:05:49.048Z,9.89
2023-02-03T02:08:19.953Z,9.86
2023-02-03T02:10:48.788Z,9.84
2023-02-03T02:13:19.786Z,9.82
2023-02-03T02:16:20.935Z,9.78
2023-02-03T02:19:22.594Z,9.76
2023-02-03T02:23:20.451Z,9.73
2023-02-03T02:26:41.027Z,9.67
2023-02-03T02:29:36.906Z,9.59
2023-02-03T02:32:37.267Z,9.55
2023-02-03T02:35:43.414Z,9.48
2023-02-03T02:38:33.006Z,9.45
2023-02-03T02:41:43.866Z,9.43
2023-02-03T02:44:21.616Z,9.44
2023-02-03T02:46:56.938Z,9.45
2023-02-03T02:49:37.994Z,9.44
2023-02-03T02:52:09.879Z,9.42
2023-02-03T02:54:44.715Z,9.40
2023-02-03T02:57:15.967Z,9.39
2023-02-03T02:59:47.379Z,9.38
2023-02-03T03:02:15.463Z,9.36
2023-02-03T03:04:48.319Z,9.35
2023-02-03T03:07:26.551Z,9.39
2023-02-03T03:10:07.112Z,9.47
2023-02-03T03:12:40.321Z,9.50
2023-02-03T03:15:18.422Z,9.51
2023-02-03T03:17:58.157Z,9.53
2023-02-03T03:20:28.411Z,9.53
2023-02-03T03:23:06.442Z,9.51
2023-02-03T03:25:49.186Z,9.49
2023-02-03T03:28:26.764Z,9.46
2023-02-03T03:30:55.099Z,9.41
2023-02-03T03:33:24.080Z,9.37
2023-02-03T03:36:12.386Z,9.33
2023-02-03T03:38:56.842Z,9.29
2023-02-03T03:41:39.828Z,9.28
2023-02-03T03:44:14.554Z,9.25
2023-02-03T03:46:59.432Z,9.21
2023-02-03T03:49:29.715Z,9.18
2023-02-03T03:52:07.748Z,9.16
2023-02-03T03:54:39.034Z,9.15
2023-02-03T03:57:18.096Z,9.12
2023-02-03T03:59:49.346Z,9.08
2023-02-03T04:02:21.232Z,9.06
2023-02-03T04:04:51.048Z,9.04
2023-02-03T04:07:20.373Z,9.02
2023-02-03T04:09:48.378Z,8.99
2023-02-03T04:12:34.144Z,8.99
2023-02-03T04:15:02.007Z,9.03
2023-02-03T04:17:29.965Z,9.05
2023-02-03T04:19:57.779Z,9.09
2023-02-03T04:22:25.600Z,9.08
2023-02-03T04:24:53.391Z,9.09
2023-02-03T04:27:21.308Z,9.13
2023-02-03T04:29:50.739Z,9.17
2023-02-03T04:32:18.804Z,9.22
2023-02-03T04:34:46.957Z,9.29
2023-02-03T04:37:14.821Z,9.36
2023-02-03T04:39:42.703Z,9.43
2023-02-03T04:42:10.591Z,9.48
2023-02-03T04:44:38.335Z,9.49
2023-02-03T04:47:06.113Z,9.50
2023-02-03T04:49:33.926Z,9.48
2023-02-03T04:52:01.899Z,9.46
2023-02-03T04:54:29.749Z,9.44
2023-02-03T04:56:57.687Z,9.44
2023-02-03T04:59:25.634Z,9.45
2023-02-03T05:01:53.789Z,9.48
2023-02-03T05:04:22.113Z,9.48
2023-02-03T05:06:50.233Z,9.50
2023-02-03T05:09:18.561Z,9.52
2023-02-03T05:11:46.635Z,9.54
2023-02-03T05:14:14.433Z,9.55
2023-02-03T05:16:42.278Z,9.58
2023-02-03T05:19:10.381Z,9.60
2023-02-03T05:21:38.231Z,9.62
2023-02-03T05:24:07.903Z,9.62
2023-02-03T05:26:36.139Z,9.66
2023-02-03T05:29:04.207Z,9.70
2023-02-03T05:31:33.622Z,9.73
2023-02-03T05:34:01.710Z,9.75
2023-02-03T05:36:29.573Z,9.77
2023-02-03T05:38:57.353Z,9.78
2023-02-03T05:41:43.937Z,9.78
2023-02-03T05:44:12.255Z,9.78
2023-02-03T05:46:40.102Z,9.77
2023-02-03T05:49:08.221Z,9.76
2023-02-03T05:51:36.288Z,9.75
2023-02-03T05:54:04.272Z,9.72
2023-02-03T05:56:32.090Z,9.68
2023-02-03T05:58:59.949Z,9.66
2023-02-03T06:01:27.797Z,9.63
2023-02-03T06:03:55.925Z,9.60
2023-02-03T06:06:23.956Z,9.55
2023-02-03T06:08:56.245Z,9.50
2023-02-03T06:11:24.599Z,9.49
2023-02-03T06:13:52.763Z,9.48
2023-02-03T06:16:21.580Z,9.46
2023-02-03T06:18:49.465Z,9.46
2023-02-03T06:21:17.305Z,9.46
2023-02-03T06:23:45.097Z,9.42
2023-02-03T06:26:13.376Z,9.39
2023-02-03T06:28:41.278Z,9.36
2023-02-03T06:31:09.282Z,9.34
2023-02-03T06:33:37.208Z,9.29
2023-02-03T06:36:06.052Z,9.31
2023-02-03T06:38:33.913Z,9.31
2023-02-03T06:41:01.816Z,9.33
2023-02-03T06:43:29.757Z,9.38
2023-02-03T06:45:58.384Z,9.42
2023-02-03T06:48:26.528Z,9.42
2023-02-03T06:50:54.333Z,9.43
2023-02-03T06:53:22.150Z,9.42
2023-02-03T06:55:49.987Z,9.42
2023-02-03T06:58:17.818Z,9.43
2023-02-03T07:00:45.669Z,9.41
2023-02-03T07:03:13.442Z,9.38
2023-02-03T07:05:41.439Z,9.33
2023-02-03T07:08:09.269Z,9.31
2023-02-03T07:10:37.092Z,9.28
2023-02-03T07:13:07.041Z,9.26
2023-02-03T07:15:35.702Z,9.20
2023-02-03T07:18:04.190Z,9.18
2023-02-03T07:20:33.063Z,9.15
2023-02-03T07:23:01.060Z,9.14
2023-02-03T07:25:29.219Z,9.13
2023-02-03T07:27:57.388Z,9.13
2023-02-03T07:30:25.453Z,9.11
2023-02-03T07:32:53.908Z,9.11
2023-02-03T07:35:21.969Z,9.10
2023-02-03T07:37:50.002Z,9.08
2023-02-03T07:40:20.092Z,9.07
2023-02-03T07:42:50.117Z,9.06
2023-02-03T07:45:18.769Z,9.05
2023-02-03T07:47:46.638Z,9.07
2023-02-03T07:50:14.480Z,9.08
2023-02-03T07:52:42.305Z,9.05
2023-02-03T07:55:10.289Z,9.05
2023-02-03T07:57:43.410Z,9.06
2023-02-03T08:00:14.702Z,9.06
2023-02-03T08:02:43.939Z,9.08
2023-02-03T08:05:13.053Z,9.10
2023-02-03T08:07:41.786Z,9.13
2023-02-03T08:10:13.691Z,9.16
2023-02-03T08:12:46.579Z,9.15
2023-02-03T08:15:15.233Z,9.16
2023-02-03T08:17:44.545Z,9.19
2023-02-03T08:20:12.840Z,9.20
2023-02-03T08:22:40.872Z,9.23
2023-02-03T08:25:10.162Z,9.25
2023-02-03T08:27:38.971Z,9.27
2023-02-03T08:30:12.277Z,9.31
2023-02-03T08:32:40.625Z,9.33
2023-02-03T08:35:08.802Z,9.38
2023-02-03T08:37:36.768Z,9.40
2023-02-03T08:40:07.184Z,9.44
2023-02-03T08:42:35.115Z,9.47
2023-02-03T08:45:05.275Z,9.51
2023-02-03T08:47:33.596Z,9.55
2023-02-03T08:50:01.399Z,9.57
2023-02-03T08:52:29.324Z,9.62
2023-02-03T08:54:57.122Z,9.66
2023-02-03T08:57:25.056Z,9.71
2023-02-03T08:59:53.228Z,9.76
2023-02-03T09:02:21.256Z,9.80
2023-02-03T09:04:50.305Z,9.83
2023-02-03T09:07:18.580Z,9.89
2023-02-03T09:09:46.428Z,9.94
2023-02-03T09:12:14.631Z,9.99
2023-02-03T09:14:42.512Z,10.04
2023-02-03T09:17:10.969Z,10.08
2023-02-03T09:19:39.038Z,10.13
2023-02-03T09:22:06.992Z,10.19
2023-02-03T09:24:35.004Z,10.24
2023-02-03T09:27:02.893Z,10.31
2023-02-03T09:29:30.748Z,10.39
2023-02-03T09:31:58.693Z,10.46
2023-02-03T09:34:26.659Z,10.54
2023-02-03T09:36:54.582Z,10.63
2023-02-03T09:39:22.371Z,10.70
2023-02-03T09:42:11.593Z,10.76
2023-02-03T09:45:05.861Z,10.80
2023-02-03T09:47:41.560Z,10.84
2023-02-03T09:50:21.504Z,10.89
2023-02-03T09:52:50.579Z,10.94
2023-02-03T09:55:43.355Z,10.99
2023-02-03T09:58:18.383Z,11.05
2023-02-03T10:00:52.754Z,11.13
2023-02-03T10:03:40.732Z,11.17
2023-02-03T10:06:12.371Z,11.21
2023-02-03T10:09:20.710Z,11.26
2023-02-03T10:12:25.683Z,11.32
2023-02-03T10:15:32.087Z,11.36
2023-02-03T10:18:11.955Z,11.41
2023-02-03T10:20:51.287Z,11.44
2023-02-03T10:23:29.833Z,11.53
2023-02-03T10:26:03.364Z,11.61
2023-02-03T10:28:39.423Z,11.64
2023-02-03T10:31:19.344Z,11.68
2023-02-03T10:33:48.595Z,11.67
2023-02-03T10:36:55.280Z,11.70
2023-02-03T10:39:50.189Z,11.75
2023-02-03T10:42:19.534Z,11.76
2023-02-03T10:44:56.514Z,11.80
2023-02-03T10:47:39.839Z,11.82
2023-02-03T10:50:19.108Z,11.86
2023-02-03T10:52:47.671Z,11.92
2023-02-03T10:55:22.888Z,11.98
2023-02-03T10:57:52.135Z,12.01
2023-02-03T11:00:28.385Z,12.01
2023-02-03T11:03:30.902Z,11.97
2023-02-03T11:06:09.214Z,11.98
2023-02-03T11:08:42.290Z,12.05
2023-02-03T11:11:26.525Z,12.10
2023-02-03T11:14:03.561Z,12.15
2023-02-03T11:16:35.162Z,12.16
2023-02-03T11:19:26.631Z,12.19
2023-02-03T11:21:56.927Z,12.22
2023-02-03T11:24:32.822Z,12.24
2023-02-03T11:27:07.023Z,12.25
2023-02-03T11:29:39.405Z,12.28
2023-02-03T11:32:19.579Z,12.31
2023-02-03T11:35:00.365Z,12.34
2023-02-03T11:37:39.084Z,12.31
2023-02-03T11:40:06.836Z,12.30
2023-02-03T11:42:38.715Z,12.30
2023-02-03T11:45:25.611Z,12.37
2023-02-03T11:48:18.152Z,12.41
2023-02-03T11:50:57.781Z,12.41
2023-02-03T11:53:58.452Z,12.44
2023-02-03T11:56:41.965Z,12.49
2023-02-03T11:59:31.434Z,12.51
2023-02-03T12:02:47.834Z,12.52
2023-02-03T12:05:37.619Z,12.52
2023-02-03T12:08:32.543Z,12.52
2023-02-03T12:11:38.954Z,12.49
2023-02-03T12:14:28.802Z,12.52
2023-02-03T12:17:24.768Z,12.52
2023-02-03T12:20:30.658Z,12.50
2023-02-03T12:23:19.991Z,12.49
2023-02-03T12:26:07.470Z,12.52
2023-02-03T12:29:01.722Z,12.57
2023-02-03T12:31:48.276Z,12.71
2023-02-03T12:34:41.765Z,12.77
2023-02-03T12:37:22.434Z,12.89
2023-02-03T12:39:58.491Z,13.00
2023-02-03T12:42:53.646Z,13.09
2023-02-03T12:45:41.552Z,13.21
2023-02-03T12:48:19.703Z,13.17
2023-02-03T12:51:05.261Z,13.15
2023-02-03T12:53:50.166Z,13.15
2023-02-03T12:56:31.808Z,13.13
2023-02-03T12:59:09.450Z,13.19
2023-02-03T13:01:56.681Z,13.27
2023-02-03T13:04:39.275Z,13.42
2023-02-03T13:07:19.567Z,13.54
2023-02-03T13:09:58.045Z,13.62
2023-02-03T13:12:51.536Z,13.68
2023-02-03T13:15:25.967Z,13.64
2023-02-03T13:18:21.566Z,13.70
2023-02-03T13:20:50.097Z,13.75
2023-02-03T13:23:18.351Z,13.73
2023-02-03T13:26:16.724Z,13.65
2023-02-03T13:28:57.704Z,13.61
2023-02-03T13:31:37.830Z,13.62
2023-02-03T13:34:11.456Z,13.63
2023-02-03T13:37:39.304Z,13.60
2023-02-03T13:40:31.760Z,13.55
2023-02-03T13:43:10.419Z,13.53
2023-02-03T13:45:49.415Z,13.51
2023-02-03T13:48:28.911Z,13.37
2023-02-03T13:51:07.815Z,13.35
2023-02-03T13:53:41.294Z,13.27
2023-02-03T13:56:23.838Z,13.34
2023-02-03T13:59:13.900Z,13.42
2023-02-03T14:01:43.551Z,13.41
2023-02-03T14:04:23.544Z,13.37
2023-02-03T14:06:53.810Z,13.40
2023-02-03T14:09:30.400Z,13.40
2023-02-03T14:12:35.800Z,13.45
2023-02-03T14:15:33.641Z,13.45
2023-02-03T14:18:01.623Z,13.44
2023-02-03T14:20:29.444Z,13.33
2023-02-03T14:23:07.235Z,13.23
2023-02-03T14:25:43.903Z,13.12
2023-02-03T14:28:17.826Z,13.04
2023-02-03T14:31:10.467Z,12.92
2023-02-03T14:33:55.842Z,12.90
2023-02-03T14:36:54.693Z,12.95
2023-02-03T14:39:55.251Z,12.94
2023-02-03T14:43:10.207Z,12.86
2023-02-03T14:46:13.737Z,12.80
2023-02-03T14:49:03.103Z,12.79
2023-02-03T14:52:32.515Z,12.77
2023-02-03T14:55:00.265Z,12.73
2023-02-03T14:57:43.481Z,12.76
2023-02-03T15:00:20.376Z,12.74
2023-02-03T15:03:07.570Z,12.76
2023-02-03T15:05:48.826Z,12.80
2023-02-03T15:08:44.365Z,12.80
2023-02-03T15:11:27.640Z,12.74
2023-02-03T15:14:19.192Z,12.76
2023-02-03T15:16:55.972Z,12.71
2023-02-03T15:19:29.288Z,12.67
2023-02-03T15:21:57.183Z,12.68
2023-02-03T15:24:25.914Z,12.69
2023-02-03T15:26:56.509Z,12.69
2023-02-03T15:29:27.903Z,12.66
2023-02-03T15:32:07.989Z,12.62
2023-02-03T15:34:47.388Z,12.57
2023-02-03T15:37:50.366Z,12.52
2023-02-03T15:40:23.357Z,12.46
2023-02-03T15:43:21.846Z,12.40
2023-02-03T15:46:28.389Z,12.38
2023-02-03T15:49:08.720Z,12.38
2023-02-03T15:51:46.218Z,12.33
2023-02-03T15:54:24.821Z,12.33
2023-02-03T15:57:21.994Z,12.32
2023-02-03T16:00:04.335Z,12.31
2023-02-03T16:02:46.230Z,12.28
2023-02-03T16:05:37.177Z,12.28
2023-02-03T16:08:40.454Z,12.25
2023-02-03T16:11:39.680Z,12.20
2023-02-03T16:14:12.046Z,12.18
2023-02-03T16:16:55.220Z,12.16
2023-02-03T16:19:38.390Z,12.14
2023-02-03T16:22:31.652Z,12.12
2023-02-03T16:25:17.756Z,12.11
2023-02-03T16:28:13.480Z,12.09
2023-02-03T16:31:17.950Z,12.06
2023-02-03T16:34:08.926Z,12.00
2023-02-03T16:37:02.397Z,11.93
2023-02-03T16:39:49.216Z,11.86
2023-02-03T16:42:38.861Z,11.82
2023-02-03T16:45:36.913Z,11.81
2023-02-03T16:48:24.213Z,11.76
2023-02-03T16:50:58.187Z,11.73
2023-02-03T16:53:30.918Z,11.68
2023-02-03T16:56:04.687Z,11.64
2023-02-03T16:58:32.749Z,11.64
2023-02-03T17:01:03.871Z,11.63
2023-02-03T17:03:35.890Z,11.63
2023-02-03T17:06:08.859Z,11.62
2023-02-03T17:08:38.897Z,11.61
2023-02-03T17:11:15.456Z,11.61
2023-02-03T17:13:43.906Z,11.59
2023-02-03T17:16:17.377Z,11.58
2023-02-03T17:18:46.459Z,11.57
2023-02-03T17:21:20.844Z,11.57
2023-02-03T17:23:49.196Z,11.57
2023-02-03T17:26:17.563Z,11.55
2023-02-03T17:28:45.472Z,11.52
2023-02-03T17:31:18.350Z,11.51
2023-02-03T17:33:50.569Z,11.49
2023-02-03T17:36:21.817Z,11.48
2023-02-03T17:55:27.923Z,11.27
2023-02-03T17:57:56.122Z,11.27
2023-02-03T18:00:24.043Z,11.28
2023-02-03T18:02:52.449Z,11.26
2023-02-03T18:05:21.176Z,11.25
2023-02-03T18:10:22.104Z,11.21
2023-02-03T18:12:50.296Z,11.19
2023-02-03T18:15:18.438Z,11.17
2023-02-03T18:17:46.264Z,11.15
2023-02-03T18:20:14.412Z,11.11
2023-02-03T18:22:44.252Z,11.08
2023-02-03T18:25:12.747Z,11.05
2023-02-03T18:27:40.639Z,11.03
2023-02-03T18:30:11.639Z,10.98
2023-02-03T18:32:39.566Z,10.98
2023-02-03T18:35:12.953Z,10.94
2023-02-03T18:37:40.839Z,10.90
2023-02-03T18:40:09.398Z,10.85
2023-02-03T18:42:37.285Z,10.81
2023-02-03T18:45:06.443Z,10.77
2023-02-03T18:47:35.317Z,10.76
2023-02-03T18:50:04.993Z,10.74
2023-02-03T18:52:32.862Z,10.71
2023-02-03T18:55:00.689Z,10.72
2023-02-03T18:57:28.794Z,10.74
2023-02-03T18:59:56.812Z,10.73
2023-02-03T19:02:25.782Z,10.74
2023-02-03T19:04:53.748Z,10.72
2023-02-03T19:07:21.591Z,10.73
2023-02-03T19:09:49.537Z,10.74
2023-02-03T19:12:17.353Z,10.75
2023-02-03T19:14:45.170Z,10.76
2023-02-03T19:17:12.975Z,10.77
2023-02-03T19:19:40.783Z,10.77
2023-02-03T19:22:08.654Z,10.77
2023-02-03T19:24:36.767Z,10.78
2023-02-03T19:27:04.806Z,10.76
2023-02-03T19:29:32.958Z,10.77
2023-02-03T19:32:00.866Z,10.76
2023-02-03T19:34:28.731Z,10.73
2023-02-03T19:36:59.097Z,10.73
2023-02-03T19:39:27.004Z,10.72
2023-02-03T19:41:54.889Z,10.70
2023-02-03T19:44:22.677Z,10.69
2023-02-03T19:46:50.793Z,10.67
2023-02-03T19:49:19.507Z,10.65
2023-02-03T19:51:47.715Z,10.60
2023-02-03T19:54:16.794Z,10.56
2023-02-03T19:56:45.057Z,10.48
2023-02-03T19:59:13.000Z,10.39
2023-02-03T20:01:40.885Z,10.37
2023-02-03T20:04:08.793Z,10.30
2023-02-03T20:06:36.722Z,10.21
2023-02-03T20:09:06.232Z,10.18
2023-02-03T20:11:34.243Z,10.13
2023-02-03T20:14:02.108Z,10.05
2023-02-03T20:16:30.002Z,10.01
2023-02-03T20:19:00.643Z,10.02
2023-02-03T20:21:28.625Z,9.98
2023-02-03T20:23:56.705Z,9.95
2023-02-03T20:26:24.587Z,9.87
2023-02-03T20:28:52.438Z,9.84
2023-02-03T20:31:21.401Z,9.80
2023-02-03T20:33:49.587Z,9.74
2023-02-03T20:36:17.402Z,9.69
2023-02-03T20:38:45.844Z,9.66
2023-02-03T20:41:13.795Z,9.62
2023-02-03T20:43:41.704Z,9.56
2023-02-03T20:46:13.518Z,9.44
2023-02-03T20:48:41.788Z,9.40
2023-02-03T20:51:15.425Z,9.38
2023-02-03T20:53:47.966Z,9.30
2023-02-03T20:56:21.367Z,9.25
2023-02-03T20:58:49.379Z,9.30
2023-02-03T21:01:22.545Z,9.32
2023-02-03T21:04:10.191Z,9.30
2023-02-03T21:06:39.847Z,9.26
2023-02-03T21:09:17.646Z,9.22
2023-02-03T21:11:45.715Z,9.22
2023-02-03T21:14:29.087Z,9.19
2023-02-03T21:16:56.916Z,9.17
2023-02-03T21:19:32.788Z,9.13
2023-02-03T21:22:18.113Z,9.10
2023-02-03T21:25:00.621Z,9.05
2023-02-03T21:27:34.599Z,8.97
2023-02-03T21:30:28.418Z,8.90
2023-02-03T21:32:58.437Z,8.85
2023-02-03T21:35:33.795Z,8.79
2023-02-03T21:38:16.803Z,8.73
2023-02-03T21:40:44.592Z,8.64
2023-02-03T21:43:18.097Z,8.61
2023-02-03T21:45:45.956Z,8.58
2023-02-03T21:48:32.497Z,8.53
2023-02-03T21:51:21.089Z,8.47
2023-02-03T21:54:03.699Z,8.42
2023-02-03T21:56:39.998Z,8.39
2023-02-03T21:59:42.305Z,8.33
2023-02-03T22:02:56.682Z,8.25
2023-02-03T22:05:24.807Z,8.22
2023-02-03T22:07:53.026Z,8.18
2023-02-03T22:10:20.908Z,8.12
2023-02-03T22:12:49.143Z,8.09
2023-02-03T22:15:17.393Z,8.05
2023-02-03T22:17:48.203Z,8.04
2023-02-03T22:20:16.231Z,8.06
2023-02-03T22:22:44.191Z,8.11
2023-02-03T22:25:12.129Z,8.18
2023-02-03T22:27:40.009Z,8.20
2023-02-03T22:30:13.781Z,8.25
2023-02-03T22:32:42.104Z,8.31
2023-02-03T22:35:10.777Z,8.31
2023-02-03T22:37:38.636Z,8.31
2023-02-03T22:40:07.054Z,8.31
2023-02-03T22:42:35.322Z,8.35
2023-02-03T22:45:03.920Z,8.41
2023-02-03T22:47:31.913Z,8.48
2023-02-03T22:49:59.830Z,8.55
2023-02-03T22:52:27.780Z,8.61
2023-02-03T22:54:55.601Z,8.67
2023-02-03T22:57:24.297Z,8.70
2023-02-03T22:59:52.155Z,8.73
2023-02-03T23:02:19.991Z,8.78
2023-02-03T23:04:47.986Z,8.82
2023-02-03T23:07:16.237Z,8.91
2023-02-03T23:09:44.083Z,8.94
2023-02-03T23:12:11.984Z,8.96
2023-02-03T23:14:39.793Z,8.99
2023-02-03T23:17:08.046Z,8.99
2023-02-03T23:19:35.913Z,9.04
2023-02-03T23:22:03.730Z,9.05
2023-02-03T23:24:31.697Z,9.09
2023-02-03T23:26:59.673Z,9.15
2023-02-03T23:29:27.749Z,9.20
2023-02-03T23:31:55.825Z,9.27
2023-02-03T23:34:42.504Z,9.28
2023-02-03T23:37:10.756Z,9.29
2023-02-03T23:39:38.595Z,9.34
2023-02-03T23:42:06.642Z,9.44
2023-02-03T23:44:34.696Z,9.50
2023-02-03T23:47:03.309Z,9.51
2023-02-03T23:49:31.479Z,9.46
2023-02-03T23:52:00.048Z,9.47
2023-02-03T23:54:28.143Z,9.35
2023-02-03T23:56:56.288Z,9.34
2023-02-03T23:59:24.313Z,9.35
